Idyllwild, California
Current Conditions -  °F | °C
As of 2:53 AM on Thursday 23 Oct 2014 (Local Time) from KPSP Reporting Station
Clear Clear  
Wind Chill: 73°   Ceiling: Unl
Heat Index: 73°   Visibility: 10mi
Dew Point: 28°   Wind: 8mph
Humidity: 19%   Direction: 330°NNW
Pressure: 29.95"   Gusts: NA
Location:  33.74°N, 116.72°W
Report Text: KPSP 230953Z 33007KT 10SM CLR 23/M02 A2995 RMK AO2 SLP137 T02281022 $
Loading
Personal Weather Stations






























Interactive Weather Map
Tropical Storm Tracking
New forecast layout! Learn more

10-Day Weather Forecast

Advertisements
Track Severe Weather on mobile